createdAt,value
2022-09-06T00:00:16.154Z,16.1
2022-09-06T00:01:11.844Z,16.1
2022-09-06T00:02:14.166Z,16.1
2022-09-06T00:03:12.685Z,16.1
2022-09-06T00:04:15.493Z,16.2
2022-09-06T00:05:13.826Z,16.2
2022-09-06T00:07:19.439Z,16.1
2022-09-06T00:08:08.539Z,16.1
2022-09-06T00:09:13.162Z,16.1
2022-09-06T00:10:12.616Z,16.1
2022-09-06T00:11:14.401Z,16
2022-09-06T00:12:11.626Z,16
2022-09-06T00:13:16.511Z,16.1
2022-09-06T00:14:12.741Z,16.1
2022-09-06T00:15:14.139Z,16
2022-09-06T00:16:07.477Z,16
2022-09-06T00:17:15.221Z,15.9
2022-09-06T00:18:14.860Z,15.9
2022-09-06T00:19:11.283Z,15.9
2022-09-06T00:20:17.265Z,15.8
2022-09-06T00:21:16.713Z,15.8
2022-09-06T00:22:13.429Z,15.8
2022-09-06T00:23:15.523Z,15.8
2022-09-06T00:24:09.099Z,15.8
2022-09-06T00:25:16.821Z,15.8
2022-09-06T00:26:10.882Z,15.8
2022-09-06T00:27:20.696Z,15.8
2022-09-06T00:28:07.667Z,15.8
2022-09-06T00:29:14.114Z,15.8
2022-09-06T00:30:14.899Z,15.8
2022-09-06T00:31:14.175Z,15.7
2022-09-06T00:32:13.864Z,15.7
2022-09-06T00:33:09.004Z,15.5
2022-09-06T00:34:19.500Z,15.4
2022-09-06T00:35:15.193Z,15.4
2022-09-06T00:36:13.545Z,15.4
2022-09-06T00:37:08.302Z,15.3
2022-09-06T00:38:13.176Z,15.3
2022-09-06T00:39:14.309Z,15.3
2022-09-06T00:40:10.854Z,15.3
2022-09-06T00:41:13.294Z,15.3
2022-09-06T00:42:13.995Z,15.3
2022-09-06T00:43:15.065Z,15.4
2022-09-06T00:44:14.357Z,15.4
2022-09-06T00:45:15.966Z,15.4
2022-09-06T00:46:12.401Z,15.4
2022-09-06T00:47:15.425Z,15.4
2022-09-06T00:48:12.836Z,15.4
2022-09-06T00:49:16.927Z,15.6
2022-09-06T00:50:19.049Z,15.6
2022-09-06T00:51:07.733Z,15.6
2022-09-06T00:52:14.985Z,15.7
2022-09-06T00:53:09.039Z,15.6
2022-09-06T00:55:07.451Z,15.6
2022-09-06T00:55:17.155Z,15.7
2022-09-06T00:56:16.901Z,15.6
2022-09-06T00:57:07.578Z,15.6
2022-09-06T00:58:18.093Z,15.7
2022-09-06T00:59:08.378Z,15.7
2022-09-06T01:00:16.708Z,15.7
2022-09-06T01:01:07.232Z,15.7
2022-09-06T01:02:14.245Z,15.7
2022-09-06T01:03:08.270Z,15.7
2022-09-06T01:04:14.549Z,15.7
2022-09-06T01:05:14.482Z,15.7
2022-09-06T01:06:08.879Z,15.7
2022-09-06T01:07:16.369Z,15.7
2022-09-06T01:08:11.937Z,15.7
2022-09-06T01:09:17.015Z,15.6
2022-09-06T01:10:07.530Z,15.6
2022-09-06T01:11:16.065Z,15.6
2022-09-06T01:12:08.285Z,15.6
2022-09-06T01:13:14.178Z,15.6
2022-09-06T01:14:14.953Z,15.6
2022-09-06T01:15:14.883Z,15.5
2022-09-06T01:16:16.199Z,15.5
2022-09-06T01:17:07.257Z,15.5
2022-09-06T01:18:21.606Z,15.4
2022-09-06T01:19:07.194Z,15.4
2022-09-06T01:20:16.440Z,15.3
2022-09-06T01:21:06.526Z,15.3
2022-09-06T01:22:14.241Z,15.2
2022-09-06T01:23:15.629Z,15.1
2022-09-06T01:24:13.908Z,15.1
2022-09-06T01:25:13.731Z,15.1
2022-09-06T01:26:08.771Z,15
2022-09-06T01:27:13.875Z,15
2022-09-06T01:28:17.836Z,15
2022-09-06T01:29:09.691Z,15
2022-09-06T01:30:14.354Z,15
2022-09-06T01:31:11.996Z,15
2022-09-06T01:32:17.684Z,15
2022-09-06T01:33:10.264Z,15
2022-09-06T01:34:16.823Z,15
2022-09-06T01:35:10.930Z,15
2022-09-06T01:36:16.822Z,14.9
2022-09-06T01:37:10.890Z,14.9
2022-09-06T01:38:13.360Z,14.9
2022-09-06T01:39:18.064Z,14.9
2022-09-06T01:40:13.241Z,14.9
2022-09-06T01:41:15.641Z,14.8
2022-09-06T01:42:10.369Z,14.8
2022-09-06T01:43:19.567Z,14.8
2022-09-06T01:44:12.446Z,14.8
2022-09-06T01:45:17.456Z,14.9
2022-09-06T01:46:08.687Z,14.9
2022-09-06T01:47:13.428Z,14.9
2022-09-06T01:48:09.630Z,14.9
2022-09-06T01:49:17.063Z,14.9
2022-09-06T01:50:10.089Z,14.9
2022-09-06T01:51:14.232Z,14.9
2022-09-06T01:52:09.350Z,14.9
2022-09-06T01:53:16.328Z,14.9
2022-09-06T01:54:10.821Z,14.9
2022-09-06T01:55:12.134Z,14.9
2022-09-06T01:56:16.415Z,15
2022-09-06T01:57:15.848Z,15.1
2022-09-06T01:58:10.330Z,15.1
2022-09-06T01:59:14.604Z,15.1
2022-09-06T02:00:10.156Z,15.1
2022-09-06T02:01:13.027Z,15.1
2022-09-06T02:02:12.493Z,15.1
2022-09-06T02:03:08.577Z,15.1
2022-09-06T02:04:19.034Z,15.3
2022-09-06T02:05:07.382Z,15.3
2022-09-06T02:06:15.260Z,15.2
2022-09-06T02:07:12.692Z,15.2
2022-09-06T02:08:21.089Z,15.2
2022-09-06T02:09:07.263Z,15.2
2022-09-06T02:10:10.948Z,15.2
2022-09-06T02:11:16.873Z,15.2
2022-09-06T02:12:09.343Z,15.2
2022-09-06T02:13:14.439Z,15.2
2022-09-06T02:14:16.773Z,15.3
2022-09-06T02:15:09.240Z,15.3
2022-09-06T02:16:18.967Z,15.2
2022-09-06T02:17:08.946Z,15.2
2022-09-06T02:18:16.309Z,15.3
2022-09-06T02:19:10.015Z,15.3
2022-09-06T02:20:18.392Z,15.3
2022-09-06T02:21:06.476Z,15.3
2022-09-06T02:22:13.288Z,15.3
2022-09-06T02:23:16.784Z,15.3
2022-09-06T02:24:13.208Z,15.3
2022-09-06T02:25:14.729Z,15.3
2022-09-06T02:26:14.540Z,15.3
2022-09-06T02:27:16.732Z,15.3
2022-09-06T02:28:09.179Z,15.2
2022-09-06T02:29:17.592Z,15.2
2022-09-06T02:30:07.836Z,15.2
2022-09-06T02:31:15.613Z,15.2
2022-09-06T02:32:12.800Z,15.2
2022-09-06T02:33:16.695Z,15.2
2022-09-06T02:34:08.910Z,15.2
2022-09-06T02:35:09.585Z,15.1
2022-09-06T02:36:11.870Z,15.1
2022-09-06T02:37:17.451Z,15.1
2022-09-06T02:38:15.215Z,15.1
2022-09-06T02:39:08.834Z,15.1
2022-09-06T02:40:12.742Z,15.1
2022-09-06T02:41:16.019Z,15.1
2022-09-06T02:42:16.833Z,15.1
2022-09-06T02:43:14.304Z,15.1
2022-09-06T02:44:13.094Z,15.1
2022-09-06T02:45:14.665Z,15
2022-09-06T02:46:13.071Z,15
2022-09-06T02:47:15.929Z,14.9
2022-09-06T02:48:07.515Z,14.9
2022-09-06T02:49:16.772Z,15
2022-09-06T02:50:13.610Z,15
2022-09-06T02:51:12.342Z,14.9
2022-09-06T02:52:15.348Z,14.9
2022-09-06T02:53:11.057Z,14.8
2022-09-06T02:54:18.590Z,14.8
2022-09-06T02:55:11.697Z,14.8
2022-09-06T02:56:10.140Z,14.7
2022-09-06T02:57:17.462Z,14.7
2022-09-06T02:58:09.448Z,14.7
2022-09-06T02:59:15.067Z,14.6
2022-09-06T03:00:10.201Z,14.6
2022-09-06T03:01:14.141Z,14.6
2022-09-06T03:02:12.914Z,14.5
2022-09-06T03:03:10.043Z,14.5
2022-09-06T03:04:16.306Z,14.5
2022-09-06T03:05:10.449Z,14.5
2022-09-06T03:06:12.964Z,14.4
2022-09-06T03:07:13.554Z,14.4
2022-09-06T03:08:17.591Z,14.5
2022-09-06T03:09:10.378Z,14.6
2022-09-06T03:10:11.711Z,14.6
2022-09-06T03:11:14.715Z,14.5
2022-09-06T03:12:18.767Z,14.5
2022-09-06T03:13:12.332Z,14.6
2022-09-06T03:14:15.322Z,14.6
2022-09-06T03:15:15.890Z,14.6
2022-09-06T03:16:16.477Z,14.5
2022-09-06T03:17:16.286Z,14.4
2022-09-06T03:18:08.863Z,14.4
2022-09-06T03:19:14.572Z,14.4
2022-09-06T03:20:16.244Z,14.4
2022-09-06T03:21:09.725Z,14.4
2022-09-06T03:22:07.613Z,14.4
2022-09-06T03:23:14.138Z,14.4
2022-09-06T03:24:16.077Z,14.3
2022-09-06T03:25:14.137Z,14.3
2022-09-06T03:26:08.268Z,14.3
2022-09-06T03:27:07.295Z,14.3
2022-09-06T03:28:14.814Z,14.3
2022-09-06T03:29:11.985Z,14.3
2022-09-06T03:30:13.251Z,14.2
2022-09-06T03:31:09.037Z,14.2
2022-09-06T03:32:13.002Z,14.1
2022-09-06T03:33:13.666Z,14.1
2022-09-06T03:34:14.296Z,14.1
2022-09-06T03:35:08.424Z,14.1
2022-09-06T03:36:14.952Z,14
2022-09-06T03:37:13.711Z,14.1
2022-09-06T03:38:08.592Z,14
2022-09-06T03:39:13.172Z,14.1
2022-09-06T03:40:11.093Z,14.1
2022-09-06T03:41:15.708Z,14.1
2022-09-06T03:42:07.646Z,14
2022-09-06T03:43:15.333Z,13.9
2022-09-06T03:44:09.774Z,13.9
2022-09-06T03:45:13.446Z,14.1
2022-09-06T03:46:10.997Z,14.1
2022-09-06T03:47:17.609Z,14.1
2022-09-06T03:48:10.591Z,14.1
2022-09-06T03:49:12.544Z,14
2022-09-06T03:50:16.221Z,14
2022-09-06T03:51:10.894Z,14
2022-09-06T03:52:15.004Z,13.9
2022-09-06T03:53:13.230Z,13.9
2022-09-06T03:54:13.573Z,13.9
2022-09-06T03:55:14.514Z,13.9
2022-09-06T03:56:09.633Z,13.9
2022-09-06T03:57:15.201Z,14
2022-09-06T03:58:07.736Z,14
2022-09-06T03:59:17.764Z,13.9
2022-09-06T04:00:14.320Z,13.9
2022-09-06T04:01:10.563Z,13.9
2022-09-06T04:02:17.560Z,13.9
2022-09-06T04:03:07.670Z,14.1
2022-09-06T04:04:18.243Z,14.1
2022-09-06T04:05:07.344Z,14.1
2022-09-06T04:06:13.742Z,14.1
2022-09-06T04:07:10.031Z,14
2022-09-06T04:08:14.434Z,13.9
2022-09-06T04:09:15.274Z,13.9
2022-09-06T04:10:10.252Z,13.9
2022-09-06T04:11:17.541Z,13.8
2022-09-06T04:12:09.926Z,13.8
2022-09-06T04:13:16.748Z,13.8
2022-09-06T04:14:16.293Z,13.8
2022-09-06T04:15:09.498Z,13.8
2022-09-06T04:16:16.143Z,13.8
2022-09-06T04:17:14.053Z,13.8
2022-09-06T04:18:15.016Z,13.8
2022-09-06T04:19:15.819Z,13.8
2022-09-06T04:20:15.600Z,13.8
2022-09-06T04:21:10.851Z,13.8
2022-09-06T04:22:16.841Z,13.8
2022-09-06T04:23:10.708Z,13.8
2022-09-06T04:24:14.568Z,13.9
2022-09-06T04:25:14.206Z,13.9
2022-09-06T04:26:08.517Z,13.9
2022-09-06T04:27:20.264Z,13.8
2022-09-06T04:28:08.600Z,13.8
2022-09-06T04:29:16.029Z,13.6
2022-09-06T04:30:11.789Z,13.6
2022-09-06T04:31:16.571Z,13.6
2022-09-06T04:32:14.407Z,13.6
2022-09-06T04:33:10.276Z,13.6
2022-09-06T04:34:15.957Z,13.5
2022-09-06T04:35:15.458Z,13.6
2022-09-06T04:36:12.293Z,13.6
2022-09-06T04:37:16.825Z,13.6
2022-09-06T04:38:09.936Z,13.5
2022-09-06T04:39:13.575Z,13.4
2022-09-06T04:40:11.148Z,13.4
2022-09-06T04:41:19.198Z,13.5
2022-09-06T04:42:07.083Z,13.5
2022-09-06T04:43:15.267Z,13.6
2022-09-06T04:44:15.417Z,13.6
2022-09-06T04:45:14.568Z,13.7
2022-09-06T04:46:11.842Z,13.7
2022-09-06T04:47:18.172Z,13.9
2022-09-06T04:48:12.083Z,13.9
2022-09-06T04:49:14.934Z,13.9
2022-09-06T04:50:10.264Z,13.9
2022-09-06T04:51:07.711Z,13.9
2022-09-06T04:52:13.587Z,13.9
2022-09-06T04:53:13.691Z,14
2022-09-06T04:54:16.731Z,14
2022-09-06T04:55:13.955Z,14.1
2022-09-06T04:56:14.332Z,14.1
2022-09-06T04:57:16.938Z,14.1
2022-09-06T04:58:09.093Z,14
2022-09-06T04:59:16.719Z,14.1
2022-09-06T05:00:13.426Z,14.1
2022-09-06T05:01:17.055Z,14.1
2022-09-06T05:02:18.002Z,14.1
2022-09-06T05:03:16.194Z,14.1
2022-09-06T05:04:13.636Z,14.1
2022-09-06T05:05:15.104Z,14.1
2022-09-06T05:06:15.094Z,14.1
2022-09-06T05:07:13.927Z,14.2
2022-09-06T05:08:16.603Z,14.2
2022-09-06T05:09:12.751Z,14.2
2022-09-06T05:10:12.121Z,14.2
2022-09-06T05:11:14.367Z,14.2
2022-09-06T05:12:16.434Z,14.2
2022-09-06T05:13:10.130Z,14.3
2022-09-06T05:14:11.265Z,14.3
2022-09-06T05:15:16.150Z,14.3
2022-09-06T05:16:13.387Z,14.4
2022-09-06T05:17:11.599Z,14.3
2022-09-06T05:18:16.213Z,14.3
2022-09-06T05:19:14.922Z,14.4
2022-09-06T05:20:15.555Z,14.4
2022-09-06T05:21:12.751Z,14.4
2022-09-06T05:22:14.813Z,14.4
2022-09-06T05:23:16.423Z,14.5
2022-09-06T05:24:12.784Z,14.5
2022-09-06T05:25:15.453Z,14.6
2022-09-06T05:26:13.559Z,14.6
2022-09-06T05:27:14.570Z,14.6
2022-09-06T05:28:14.663Z,14.6
2022-09-06T05:29:14.212Z,14.6
2022-09-06T05:30:13.394Z,14.7
2022-09-06T05:31:12.024Z,14.8
2022-09-06T05:32:18.426Z,14.8
2022-09-06T05:33:08.614Z,14.8
2022-09-06T05:34:15.072Z,14.9
2022-09-06T05:35:12.154Z,14.9
2022-09-06T05:36:15.422Z,14.9
2022-09-06T05:37:13.952Z,14.9
2022-09-06T05:38:13.946Z,14.9
2022-09-06T05:39:14.738Z,14.9
2022-09-06T05:40:11.459Z,14.9
2022-09-06T05:41:12.509Z,14.9
2022-09-06T05:42:18.618Z,14.9
2022-09-06T05:43:14.421Z,15.1
2022-09-06T05:44:13.588Z,15.3
2022-09-06T05:45:13.868Z,15.3
2022-09-06T05:46:16.420Z,15.1
2022-09-06T05:47:10.859Z,15.2
2022-09-06T05:48:14.560Z,15.1
2022-09-06T05:49:12.629Z,15.1
2022-09-06T05:50:14.754Z,15.1
2022-09-06T05:51:16.468Z,15.1
2022-09-06T05:52:20.193Z,15.2
2022-09-06T05:53:15.175Z,15.2
2022-09-06T05:54:16.125Z,15.2
2022-09-06T05:55:12.956Z,15.3
2022-09-06T05:56:15.129Z,15.3
2022-09-06T05:57:15.414Z,15.3
2022-09-06T05:58:16.829Z,15.3
2022-09-06T05:59:16.479Z,15.4
2022-09-06T06:00:12.918Z,15.3
2022-09-06T06:01:13.775Z,15.3
2022-09-06T06:02:14.053Z,15.3
2022-09-06T06:03:17.056Z,15.4
2022-09-06T06:04:06.954Z,15.4
2022-09-06T06:05:13.643Z,15.4
2022-09-06T06:06:08.020Z,15.5
2022-09-06T06:07:13.151Z,15.5
2022-09-06T06:08:13.042Z,15.6
2022-09-06T06:09:13.927Z,15.7
2022-09-06T06:10:10.677Z,15.7
2022-09-06T06:11:23.235Z,15.9
2022-09-06T06:12:07.684Z,15.9
2022-09-06T06:13:14.121Z,16
2022-09-06T06:14:13.712Z,16
2022-09-06T06:15:14.370Z,16.1
2022-09-06T06:16:16.089Z,16.1
2022-09-06T06:17:18.902Z,16.1
2022-09-06T06:18:15.637Z,16.2
2022-09-06T06:19:14.482Z,16.2
2022-09-06T06:20:15.656Z,16.2
2022-09-06T06:21:10.232Z,16.3
2022-09-06T06:22:13.844Z,16.2
2022-09-06T06:23:13.272Z,16.3
2022-09-06T06:24:13.696Z,16.3
2022-09-06T06:25:14.250Z,16.4
2022-09-06T06:26:15.777Z,16.4
2022-09-06T06:27:15.554Z,16.5
2022-09-06T06:28:14.231Z,16.5
2022-09-06T06:29:06.569Z,16.6
2022-09-06T06:30:16.472Z,16.6
2022-09-06T06:31:17.117Z,16.8
2022-09-06T06:32:14.171Z,16.8
2022-09-06T06:33:14.696Z,16.8
2022-09-06T06:34:14.880Z,16.8
2022-09-06T06:35:13.313Z,16.8
2022-09-06T06:36:13.907Z,16.8
2022-09-06T06:37:25.917Z,16.9
2022-09-06T06:38:08.022Z,16.9
2022-09-06T06:39:13.555Z,17
2022-09-06T06:40:11.242Z,17.1
2022-09-06T06:41:16.607Z,17.1
2022-09-06T06:42:07.176Z,17.2
2022-09-06T06:43:19.020Z,17.3
2022-09-06T06:44:13.878Z,17.3
2022-09-06T06:45:14.823Z,17.3
2022-09-06T06:46:05.996Z,17.2
2022-09-06T06:47:13.919Z,17.2
2022-09-06T06:48:18.728Z,17.3
2022-09-06T06:49:12.653Z,17.3
2022-09-06T06:50:13.078Z,17.4
2022-09-06T06:51:14.378Z,17.4
2022-09-06T06:52:16.349Z,17.5
2022-09-06T06:53:15.591Z,17.5
2022-09-06T06:54:14.215Z,17.5
2022-09-06T06:55:19.082Z,17.5
2022-09-06T06:56:13.591Z,17.4
2022-09-06T06:57:13.811Z,17.5
2022-09-06T06:58:13.532Z,17.6
2022-09-06T06:59:15.071Z,17.6
2022-09-06T07:00:12.546Z,17.7
2022-09-06T07:01:15.483Z,17.8
2022-09-06T07:02:11.638Z,17.8
2022-09-06T07:03:15.843Z,17.9
2022-09-06T07:04:13.624Z,17.9
2022-09-06T07:06:14.931Z,18
2022-09-06T07:08:14.443Z,18.1
2022-09-06T07:09:12.328Z,18.1
2022-09-06T07:11:12.235Z,18.2
2022-09-06T07:12:13.322Z,18.1
2022-09-06T07:13:12.245Z,18.1
2022-09-06T07:14:12.218Z,18.2
2022-09-06T07:15:16.430Z,18.2
2022-09-06T07:16:07.666Z,18.3
2022-09-06T07:17:15.550Z,18.4
2022-09-06T07:18:15.805Z,18.5
2022-09-06T07:19:07.691Z,18.5
2022-09-06T07:20:17.959Z,18.6
2022-09-06T07:22:11.817Z,18.7
2022-09-06T07:24:13.040Z,18.8
2022-09-06T07:25:19.007Z,18.8
2022-09-06T07:26:18.540Z,18.9
2022-09-06T07:28:16.139Z,19.1
2022-09-06T07:29:15.573Z,19.1
2022-09-06T07:30:12.887Z,19.1
2022-09-06T07:32:12.087Z,19.2
2022-09-06T07:33:15.038Z,19.2
2022-09-06T07:34:12.584Z,19.3
2022-09-06T07:35:12.929Z,19.3
2022-09-06T07:36:14.813Z,19.4
2022-09-06T07:37:14.154Z,19.4
2022-09-06T07:38:13.120Z,19.3
2022-09-06T07:39:13.662Z,19.3
2022-09-06T07:40:10.136Z,19.3
2022-09-06T07:41:15.758Z,19.6
2022-09-06T07:42:07.711Z,19.6
2022-09-06T07:43:12.801Z,19.7
2022-09-06T07:44:15.934Z,19.7
2022-09-06T07:45:14.125Z,19.8
2022-09-06T07:46:13.755Z,19.8
2022-09-06T07:48:11.832Z,20.1
2022-09-06T07:49:13.454Z,20.3
2022-09-06T07:51:11.351Z,20.4
2022-09-06T07:53:08.234Z,20.4
2022-09-06T07:54:34.321Z,20.8
2022-09-06T07:55:08.678Z,20.8
2022-09-06T07:56:15.532Z,20.9
2022-09-06T07:57:06.729Z,20.9
2022-09-06T07:58:18.431Z,20.8
2022-09-06T07:59:10.330Z,20.8
2022-09-06T08:00:15.471Z,20.6
2022-09-06T08:01:12.886Z,20.6
2022-09-06T08:02:13.251Z,20.6
2022-09-06T08:03:13.030Z,20.6
2022-09-06T08:04:14.632Z,20.6
2022-09-06T08:06:13.353Z,20.6
2022-09-06T08:09:17.513Z,20.8
2022-09-06T08:10:17.142Z,20.8
2022-09-06T08:11:13.116Z,20.8
2022-09-06T08:12:14.221Z,20.9
2022-09-06T08:13:13.011Z,20.9
2022-09-06T08:14:14.754Z,20.9
2022-09-06T08:15:14.468Z,20.9
2022-09-06T08:16:09.854Z,20.9
2022-09-06T08:17:12.538Z,20.9
2022-09-06T08:18:17.636Z,21
2022-09-06T08:19:15.437Z,21
2022-09-06T08:20:17.701Z,21.1
2022-09-06T08:21:14.316Z,21.1
2022-09-06T08:22:11.688Z,21
2022-09-06T08:23:13.944Z,21
2022-09-06T08:24:14.596Z,21.1
2022-09-06T08:25:13.266Z,21.1
2022-09-06T08:27:16.879Z,21.1
2022-09-06T08:28:13.871Z,21.1
2022-09-06T08:29:12.974Z,20.9
2022-09-06T08:30:14.814Z,21
2022-09-06T08:31:10.235Z,21
2022-09-06T08:32:13.808Z,21
2022-09-06T08:33:14.305Z,21
2022-09-06T08:34:18.012Z,21
2022-09-06T08:35:14.102Z,21
2022-09-06T08:36:13.988Z,21
2022-09-06T08:37:12.882Z,21.1
2022-09-06T08:38:13.422Z,21.1
2022-09-06T08:39:14.227Z,21.1
2022-09-06T08:40:12.402Z,21.1
2022-09-06T08:41:15.734Z,21.1
2022-09-06T08:42:16.801Z,21.2
2022-09-06T08:43:08.995Z,21.2
2022-09-06T08:45:15.436Z,21.1
2022-09-06T08:46:12.616Z,21.1
2022-09-06T08:47:14.220Z,21.1
2022-09-06T08:48:11.794Z,21.1
2022-09-06T08:49:12.377Z,21.2
2022-09-06T08:50:14.532Z,21.3
2022-09-06T08:51:12.442Z,21.3
2022-09-06T08:52:14.722Z,21.3
2022-09-06T08:53:18.224Z,21.3
2022-09-06T08:54:14.518Z,21.3
2022-09-06T08:55:14.412Z,21.3
2022-09-06T08:56:15.629Z,21.3
2022-09-06T08:57:10.242Z,21.3
2022-09-06T08:58:14.494Z,21.5
2022-09-06T08:59:14.884Z,21.7
2022-09-06T09:00:15.196Z,21.7
2022-09-06T09:01:15.200Z,22.3
2022-09-06T09:02:13.828Z,22.3
2022-09-06T09:03:18.092Z,22.4
2022-09-06T09:04:08.376Z,22.6
2022-09-06T09:05:17.043Z,22.6
2022-09-06T09:06:16.299Z,22.6
2022-09-06T09:07:07.454Z,22.8
2022-09-06T09:08:12.927Z,23
2022-09-06T09:09:12.699Z,23
2022-09-06T09:10:12.695Z,23.1
2022-09-06T09:11:15.032Z,23.1
2022-09-06T09:12:15.825Z,23.2
2022-09-06T09:13:09.764Z,23.2
2022-09-06T09:14:17.924Z,23.3
2022-09-06T09:15:12.077Z,23.3
2022-09-06T09:16:16.731Z,23.4
2022-09-06T09:17:13.909Z,23.4
2022-09-06T09:18:14.520Z,23.4
2022-09-06T09:19:14.970Z,23.4
2022-09-06T09:20:15.694Z,23.4
2022-09-06T09:21:10.523Z,23.5
2022-09-06T09:22:13.613Z,23.6
2022-09-06T09:23:12.947Z,23.6
2022-09-06T09:24:13.552Z,23.8
2022-09-06T09:25:12.508Z,23.9
2022-09-06T09:26:14.702Z,23.9
2022-09-06T09:27:16.052Z,23.8
2022-09-06T09:28:09.365Z,23.9
2022-09-06T09:29:13.605Z,23.9
2022-09-06T09:31:08.937Z,24
2022-09-06T09:32:15.454Z,24.1
2022-09-06T09:33:17.129Z,24.4
2022-09-06T09:34:19.237Z,24.4
2022-09-06T09:35:12.068Z,24.4
2022-09-06T09:36:13.150Z,24.3
2022-09-06T09:38:12.784Z,24.4
2022-09-06T09:39:12.576Z,24.6
2022-09-06T09:40:13.879Z,24.6
2022-09-06T09:41:15.448Z,24.7
2022-09-06T09:42:13.181Z,24.7
2022-09-06T09:43:15.192Z,24.8
2022-09-06T09:44:15.961Z,24.6
2022-09-06T09:45:14.426Z,24.8
2022-09-06T09:46:11.019Z,24.8
2022-09-06T09:47:16.885Z,24.8
2022-09-06T09:48:10.402Z,24.8
2022-09-06T09:49:14.141Z,24.9
2022-09-06T09:50:15.060Z,24.9
2022-09-06T09:51:17.155Z,25.1
2022-09-06T09:52:13.147Z,25.1
2022-09-06T09:53:14.090Z,25.1
2022-09-06T09:54:12.912Z,25.3
2022-09-06T09:55:14.437Z,25.4
2022-09-06T09:56:13.674Z,25.4
2022-09-06T09:57:15.701Z,25
2022-09-06T09:58:15.072Z,24.9
2022-09-06T09:59:13.070Z,24.8
2022-09-06T10:00:16.583Z,24.8
2022-09-06T10:01:12.473Z,25.3
2022-09-06T10:02:14.436Z,25.5
2022-09-06T10:03:13.047Z,25.5
2022-09-06T10:05:12.677Z,24.8
2022-09-06T10:07:14.961Z,24.8
2022-09-06T10:08:12.446Z,25.6
2022-09-06T10:09:17.234Z,25.9
2022-09-06T10:10:09.196Z,25.9
2022-09-06T10:11:15.181Z,25.6
2022-09-06T10:12:16.627Z,25.6
2022-09-06T10:13:10.928Z,25.6
2022-09-06T10:14:15.342Z,25.3
2022-09-06T10:15:14.694Z,25.3
2022-09-06T10:16:13.455Z,25.3
2022-09-06T10:17:14.236Z,25.3
2022-09-06T10:18:13.209Z,25.3
2022-09-06T10:19:14.731Z,25.3
2022-09-06T10:20:13.080Z,25
2022-09-06T10:21:13.900Z,25.1
2022-09-06T10:22:13.204Z,25.1
2022-09-06T10:23:14.511Z,25.1
2022-09-06T10:24:30.926Z,25.2
2022-09-06T10:25:12.387Z,25.3
2022-09-06T10:26:12.233Z,25.5
2022-09-06T10:27:14.435Z,25.5
2022-09-06T10:28:15.763Z,25.6
2022-09-06T10:29:15.278Z,25.4
2022-09-06T10:30:15.715Z,25.4
2022-09-06T10:31:17.251Z,25.6
2022-09-06T10:32:12.640Z,25.9
2022-09-06T10:33:12.705Z,25.9
2022-09-06T10:34:11.863Z,25.6
2022-09-06T10:35:16.643Z,25.6
2022-09-06T10:36:13.677Z,25.8
2022-09-06T10:37:15.708Z,26
2022-09-06T10:38:15.034Z,26
2022-09-06T10:39:12.499Z,26.3
2022-09-06T10:40:13.013Z,26.3
2022-09-06T10:41:15.591Z,26.1
2022-09-06T10:42:13.044Z,26.1
2022-09-06T10:43:12.269Z,25.9
2022-09-06T10:44:15.815Z,25.8
2022-09-06T10:45:07.595Z,25.8
2022-09-06T10:46:07.831Z,25.6
2022-09-06T10:47:14.199Z,25.4
2022-09-06T10:48:17.225Z,25.4
2022-09-06T10:49:19.467Z,25.4
2022-09-06T10:50:07.869Z,25.4
2022-09-06T10:51:13.439Z,25.9
2022-09-06T10:52:13.535Z,25.9
2022-09-06T10:53:12.423Z,25.9
2022-09-06T10:54:21.016Z,25.8
2022-09-06T10:55:07.559Z,25.8
2022-09-06T10:56:21.000Z,25.8
2022-09-06T10:57:08.926Z,25.8
2022-09-06T11:00:09.496Z,26.4
2022-09-06T11:01:17.647Z,26.6
2022-09-06T11:02:07.033Z,26.6
2022-09-06T11:04:13.263Z,26
2022-09-06T11:06:12.952Z,25.8
2022-09-06T11:07:14.013Z,25.9
2022-09-06T11:09:12.918Z,25.7
2022-09-06T11:10:15.955Z,26.2
2022-09-06T11:11:11.148Z,26.4
2022-09-06T11:12:16.232Z,26.8
2022-09-06T11:13:11.239Z,26.8
2022-09-06T11:14:17.702Z,27.1
2022-09-06T11:15:10.732Z,27.1
2022-09-06T11:16:16.764Z,27.1
2022-09-06T11:17:10.530Z,26.8
2022-09-06T11:18:12.928Z,26.3
2022-09-06T11:19:15.071Z,26.3
2022-09-06T11:20:16.443Z,26.6
2022-09-06T11:21:19.422Z,26.6
2022-09-06T11:22:10.925Z,26.6
2022-09-06T11:23:07.909Z,27.1
2022-09-06T11:24:14.808Z,27.4
2022-09-06T11:25:12.880Z,27.4
2022-09-06T11:26:13.794Z,27.3
2022-09-06T11:27:14.324Z,27.3
2022-09-06T11:28:50.195Z,27.4
2022-09-06T11:29:12.240Z,27.4
2022-09-06T11:30:16.517Z,27.4
2022-09-06T11:31:07.463Z,27.4
2022-09-06T11:33:12.502Z,27.3
2022-09-06T11:34:12.644Z,26.9
2022-09-06T11:35:19.693Z,26.9
2022-09-06T11:36:13.975Z,26.9
2022-09-06T11:37:12.025Z,26.9
2022-09-06T11:38:11.747Z,26.7
2022-09-06T11:39:12.247Z,26.7
2022-09-06T11:40:30.378Z,26.8
2022-09-06T11:41:14.477Z,27.2
2022-09-06T11:42:10.799Z,27.2
2022-09-06T11:43:15.226Z,27.3
2022-09-06T11:44:13.704Z,27.3
2022-09-06T11:45:15.454Z,27.5
2022-09-06T11:46:17.418Z,27.8
2022-09-06T11:47:06.947Z,27.8
2022-09-06T11:48:13.842Z,27.9
2022-09-06T11:49:14.267Z,27.6
2022-09-06T11:50:15.323Z,27.4
2022-09-06T11:51:12.817Z,27.3
2022-09-06T11:52:14.978Z,27.5
2022-09-06T11:53:10.932Z,27.5
2022-09-06T11:54:16.436Z,27.3
2022-09-06T11:55:10.241Z,27.3
2022-09-06T11:56:16.729Z,27.1
2022-09-06T11:57:09.170Z,27.1
2022-09-06T11:58:16.485Z,27.1
2022-09-06T11:59:12.732Z,27.1
2022-09-06T12:00:17.819Z,27.4
2022-09-06T12:01:15.583Z,27.4
2022-09-06T12:02:13.185Z,27.8
2022-09-06T12:04:12.984Z,27.8
2022-09-06T12:05:11.829Z,27.9
2022-09-06T12:06:11.010Z,28
2022-09-06T12:07:12.819Z,28
2022-09-06T12:08:15.430Z,28.1
2022-09-06T12:09:12.441Z,28.1
2022-09-06T12:10:13.168Z,28.1
2022-09-06T12:11:13.140Z,27.9
2022-09-06T12:12:17.070Z,27.9
2022-09-06T12:13:08.159Z,27.9
2022-09-06T12:14:14.152Z,27.4
2022-09-06T12:15:14.368Z,27.4
2022-09-06T12:16:12.845Z,27.3
2022-09-06T12:17:15.078Z,27.3
2022-09-06T12:18:13.580Z,27.3
2022-09-06T12:19:14.746Z,26.6
2022-09-06T12:20:14.652Z,27
2022-09-06T12:21:11.972Z,27
2022-09-06T12:22:12.483Z,27.3
2022-09-06T12:23:12.653Z,27.3
2022-09-06T12:24:12.374Z,27.6
2022-09-06T12:25:12.659Z,27.6
2022-09-06T12:26:14.018Z,27.5
2022-09-06T12:27:12.830Z,27.5
2022-09-06T12:28:11.700Z,27.6
2022-09-06T12:29:13.710Z,27.6
2022-09-06T12:30:15.259Z,27.6
2022-09-06T12:31:18.263Z,27.2
2022-09-06T12:32:16.175Z,27.5
2022-09-06T12:33:13.417Z,27.6
2022-09-06T12:34:14.817Z,27.8
2022-09-06T12:36:16.020Z,27.9
2022-09-06T12:37:13.570Z,27.8
2022-09-06T12:38:12.379Z,27.8
2022-09-06T12:39:12.239Z,27.8
2022-09-06T12:40:16.447Z,27.8
2022-09-06T12:41:09.953Z,27.8
2022-09-06T12:42:15.211Z,27.8
2022-09-06T12:43:16.698Z,27.8
2022-09-06T12:44:12.788Z,27.8
2022-09-06T12:45:13.738Z,27.8
2022-09-06T12:46:12.700Z,27.8
2022-09-06T12:47:11.205Z,27.3
2022-09-06T12:48:11.423Z,27.5
2022-09-06T12:49:12.906Z,27.5
2022-09-06T12:50:13.707Z,27.6
2022-09-06T12:51:13.156Z,27.6
2022-09-06T12:52:10.901Z,27.6
2022-09-06T12:53:14.583Z,27.2
2022-09-06T12:54:14.746Z,27.1
2022-09-06T12:55:14.173Z,27.1
2022-09-06T12:56:25.233Z,27.2
2022-09-06T12:57:14.073Z,27.3
2022-09-06T12:58:19.846Z,27.2
2022-09-06T12:59:13.660Z,27.2
2022-09-06T13:00:12.739Z,27.1
2022-09-06T13:01:14.960Z,27.2
2022-09-06T13:02:14.897Z,27.3
2022-09-06T13:03:11.537Z,27.3
2022-09-06T13:04:13.319Z,27.2
2022-09-06T13:05:15.623Z,27.3
2022-09-06T13:06:10.566Z,27.3
2022-09-06T13:07:11.333Z,27.1
2022-09-06T13:08:11.093Z,27.1
2022-09-06T13:09:12.097Z,27.1
2022-09-06T13:10:14.849Z,27.2
2022-09-06T13:11:08.728Z,27.2
2022-09-06T13:12:15.948Z,27.5
2022-09-06T13:13:09.971Z,27.5
2022-09-06T13:14:14.733Z,27.7
2022-09-06T13:15:16.499Z,27.6
2022-09-06T13:16:19.313Z,27.7
2022-09-06T13:17:14.982Z,27.8
2022-09-06T13:18:14.056Z,27.6
2022-09-06T13:19:14.299Z,27.6
2022-09-06T13:20:19.324Z,27.8
2022-09-06T13:21:16.743Z,27.8
2022-09-06T13:22:13.606Z,27.9
2022-09-06T13:23:15.863Z,27.9
2022-09-06T13:24:12.772Z,27.8
2022-09-06T13:25:17.584Z,27.9
2022-09-06T13:26:13.223Z,27.8
2022-09-06T13:27:15.571Z,27.8
2022-09-06T13:28:09.712Z,27.6
2022-09-06T13:29:15.844Z,27.4
2022-09-06T13:30:18.665Z,27.5
2022-09-06T13:31:13.036Z,27.4
2022-09-06T13:32:12.221Z,27.3
2022-09-06T13:33:13.745Z,27.3
2022-09-06T13:34:11.262Z,27.1
2022-09-06T13:35:16.286Z,27.1
2022-09-06T13:36:08.912Z,27.1
2022-09-06T13:37:14.254Z,27.1
2022-09-06T13:38:06.900Z,27.1
2022-09-06T13:39:14.234Z,27
2022-09-06T13:40:13.723Z,27
2022-09-06T13:41:16.410Z,26.9
2022-09-06T13:42:14.597Z,27
2022-09-06T13:43:12.099Z,27
2022-09-06T13:44:12.319Z,27.1
2022-09-06T13:45:13.349Z,26.9
2022-09-06T13:46:16.221Z,26.9
2022-09-06T13:47:09.315Z,26.9
2022-09-06T13:48:26.045Z,26.9
2022-09-06T13:49:13.982Z,26.9
2022-09-06T13:50:14.669Z,26.9